Flight Track Log - Related Links

Times and Time Zones

All times are in EDT time to prevent confusion due to time zone crossing. See the SKW4796 flight status page for this flight to view local times or setup timezone preferences in your user account.

Time Position Orientation Groundspeed Altitude Reporting Facility
EDT Latitude Longitude Course Direction KTS MPH feet Rate Location/Type
Sat 07:02:07 PM 32.7500 -117.2167 292° West 156 180 1,500  Level Southern California TRACON
Sat 07:03:01 PM 32.7667 -117.2667 292° West 225 259 3,300 2,684 Climbing Southern California TRACON
Sat 07:04:01 PM 32.8167 -117.3500 306° West 255 293 6,600 3,200 Climbing Southern California TRACON
Sat 07:05:01 PM 32.8667 -117.4000 320° Northwest 251 289 9,700 1,650 Climbing Southern California TRACON
Sat 07:06:01 PM 32.9167 -117.4667 312° West 288 331 9,900 100 Climbing Southern California TRACON
Sat 07:07:01 PM 32.9667 -117.5500 306° West 311 358 9,900  Level Southern California TRACON
Sat 07:08:01 PM 33.0333 -117.6333 314° West 315 362 9,900 50 Level Southern California TRACON
Sat 07:09:01 PM 33.0833 -117.7000 312° West 321 369 10,000 50 Climbing Southern California TRACON
Sat 07:10:01 PM 33.1667 -117.7333 341° North 319 367 10,000  Level Southern California TRACON
Sat 07:11:01 PM 33.2500 -117.7833 333° Northwest 321 369 10,000  Level Southern California TRACON
Sat 07:12:01 PM 33.3333 -117.8167 342° North 320 368 10,000  Level Southern California TRACON
Sat 07:13:01 PM 33.4000 -117.8500 337° Northwest 263 303 10,000 -750 Level Southern California TRACON
Sat 07:14:01 PM 33.4667 -117.8833 337° Northwest 254 292 8,500 -1,582 Descending Southern California TRACON
Sat 07:14:32 PM 33.4986 -117.9069 328° Northwest 248 285 7,600 -968 Descending Los Angeles Center
Sat 07:15:34 PM 33.5633 -117.9400 337° Northwest 253 291 7,000 -290 Descending Los Angeles Center
Sat 07:16:36 PM 33.6258 -117.9722 337° Northwest 248 285 7,000  Level Los Angeles Center
Sat 07:17:37 PM 33.6919 -118.0067 337° Northwest 254 292 7,000  Level Los Angeles Center
Sat 07:18:39 PM 33.7561 -118.0400 337° Northwest 255 293 7,000 -146 Level Los Angeles Center
Sat 07:19:40 PM 33.8306 -118.0653 344° North 232 267 6,700 -829 Descending Los Angeles Center
Sat 07:20:42 PM 33.8892 -118.0722 354° North 215 247 5,300 -1,268 Descending Los Angeles Center
Sat 07:21:43 PM 33.9461 -118.0878 347° North 218 251 4,100 -976 Descending Los Angeles Center
Sat 07:22:45 PM 33.9622 -118.1517 287° West 205 236 3,300 -537 Descending Los Angeles Center
Sat 07:23:46 PM 33.9556 -118.2122 262° West 187 215 3,000 -585 Descending Los Angeles Center
Sat 07:24:48 PM 33.9506 -118.2658 264° West 176 203 2,100 -780 Descending Los Angeles Center
Sat 07:25:49 PM 33.9450 -118.3106 261° West 151 174 1,400 -683 Descending Los Angeles Center
Sat 07:26:51 PM 33.9436 -118.3561 268° West 124 143 700 -634 Descending Los Angeles Center
Sat 07:27:52 PM 33.9394 -118.3908 262° West 114 131 100 -590 Descending Los Angeles Center

Login

Don't have an account? Register now (free) for customized features, flight alerts, and more!